sensor_id;sensor_type;location;lat;lon;timestamp;pressure;altitude;pressure_sealevel;temperature;humidity
32873;BME280;19224;52.462;16.898;2024-03-29T00:01:53;98634.47;;;10.14;91.86
32873;BME280;19224;52.462;16.898;2024-03-29T00:04:23;98650.52;;;10.16;91.80
32873;BME280;19224;52.462;16.898;2024-03-29T00:06:54;98652.02;;;10.20;91.55
32873;BME280;19224;52.462;16.898;2024-03-29T00:09:24;98662.09;;;10.11;91.93
32873;BME280;19224;52.462;16.898;2024-03-29T00:11:54;98658.09;;;10.04;92.48
32873;BME280;19224;52.462;16.898;2024-03-29T00:14:25;98660.56;;;10.07;92.35
32873;BME280;19224;52.462;16.898;2024-03-29T00:16:55;98663.75;;;10.06;92.21
32873;BME280;19224;52.462;16.898;2024-03-29T00:19:26;98675.95;;;10.05;92.23
32873;BME280;19224;52.462;16.898;2024-03-29T00:21:56;98673.25;;;9.98;92.62
32873;BME280;19224;52.462;16.898;2024-03-29T00:24:26;98679.41;;;10.00;92.54
32873;BME280;19224;52.462;16.898;2024-03-29T00:26:56;98680.56;;;9.96;92.90
32873;BME280;19224;52.462;16.898;2024-03-29T00:29:32;98687.22;;;9.90;93.06
32873;BME280;19224;52.462;16.898;2024-03-29T00:32:02;98692.16;;;9.84;93.62
32873;BME280;19224;52.462;16.898;2024-03-29T00:34:33;98701.56;;;9.84;93.58
32873;BME280;19224;52.462;16.898;2024-03-29T00:37:03;98703.66;;;9.86;93.61
32873;BME280;19224;52.462;16.898;2024-03-29T00:39:34;98705.38;;;9.87;93.64
32873;BME280;19224;52.462;16.898;2024-03-29T00:42:05;98724.58;;;9.88;93.63
32873;BME280;19224;52.462;16.898;2024-03-29T00:44:37;98733.21;;;9.73;94.43
32873;BME280;19224;52.462;16.898;2024-03-29T00:47:07;98746.53;;;9.75;94.55
32873;BME280;19224;52.462;16.898;2024-03-29T00:49:38;98750.91;;;9.63;95.19
32873;BME280;19224;52.462;16.898;2024-03-29T00:52:08;98752.13;;;9.65;95.32
32873;BME280;19224;52.462;16.898;2024-03-29T00:54:38;98755.98;;;9.61;95.46
32873;BME280;19224;52.462;16.898;2024-03-29T00:57:09;98759.72;;;9.65;95.33
32873;BME280;19224;52.462;16.898;2024-03-29T00:59:41;98774.00;;;9.66;95.40
32873;BME280;19224;52.462;16.898;2024-03-29T01:02:12;98775.94;;;9.64;95.65
32873;BME280;19224;52.462;16.898;2024-03-29T01:04:43;98775.09;;;9.56;96.09
32873;BME280;19224;52.462;16.898;2024-03-29T01:07:13;98775.68;;;9.61;95.90
32873;BME280;19224;52.462;16.898;2024-03-29T01:09:45;98784.21;;;9.54;96.34
32873;BME280;19224;52.462;16.898;2024-03-29T01:12:15;98789.79;;;9.58;96.37
32873;BME280;19224;52.462;16.898;2024-03-29T01:14:48;98793.61;;;9.61;96.41
32873;BME280;19224;52.462;16.898;2024-03-29T01:17:18;98804.95;;;9.59;96.68
32873;BME280;19224;52.462;16.898;2024-03-29T01:19:48;98800.71;;;9.69;96.29
32873;BME280;19224;52.462;16.898;2024-03-29T01:22:19;98805.74;;;9.87;95.40
32873;BME280;19224;52.462;16.898;2024-03-29T01:24:49;98809.69;;;9.89;95.41
32873;BME280;19224;52.462;16.898;2024-03-29T01:27:20;98811.78;;;9.91;95.41
32873;BME280;19224;52.462;16.898;2024-03-29T01:29:50;98817.16;;;9.91;95.43
32873;BME280;19224;52.462;16.898;2024-03-29T01:32:20;98825.40;;;9.95;95.26
32873;BME280;19224;52.462;16.898;2024-03-29T01:34:51;98828.38;;;9.97;95.22
32873;BME280;19224;52.462;16.898;2024-03-29T01:37:21;98838.63;;;9.98;95.26
32873;BME280;19224;52.462;16.898;2024-03-29T01:39:52;98840.86;;;9.91;95.66
32873;BME280;19224;52.462;16.898;2024-03-29T01:42:23;98851.52;;;10.07;95.14
32873;BME280;19224;52.462;16.898;2024-03-29T01:44:53;98845.09;;;10.09;94.94
32873;BME280;19224;52.462;16.898;2024-03-29T01:47:24;98847.48;;;10.14;94.88
32873;BME280;19224;52.462;16.898;2024-03-29T01:49:55;98841.52;;;10.09;95.11
32873;BME280;19224;52.462;16.898;2024-03-29T01:52:27;98843.23;;;10.10;94.66
32873;BME280;19224;52.462;16.898;2024-03-29T01:54:58;98838.28;;;10.04;94.54
32873;BME280;19224;52.462;16.898;2024-03-29T01:57:29;98848.45;;;10.06;94.50
32873;BME280;19224;52.462;16.898;2024-03-29T02:00:00;98860.84;;;10.08;94.30
32873;BME280;19224;52.462;16.898;2024-03-29T02:02:33;98872.74;;;10.11;93.77
32873;BME280;19224;52.462;16.898;2024-03-29T02:05:04;98872.44;;;10.16;93.50
32873;BME280;19224;52.462;16.898;2024-03-29T02:07:36;98880.17;;;10.27;93.36
32873;BME280;19224;52.462;16.898;2024-03-29T02:10:07;98890.30;;;10.17;94.10
32873;BME280;19224;52.462;16.898;2024-03-29T02:12:39;98898.06;;;10.28;94.32
32873;BME280;19224;52.462;16.898;2024-03-29T02:15:17;98927.00;;;10.25;94.26
32873;BME280;19224;52.462;16.898;2024-03-29T02:17:47;98921.33;;;10.15;96.10
32873;BME280;19224;52.462;16.898;2024-03-29T02:20:20;98909.67;;;10.29;97.39
32873;BME280;19224;52.462;16.898;2024-03-29T02:22:54;98910.11;;;10.09;100.00
32873;BME280;19224;52.462;16.898;2024-03-29T02:25:25;98911.83;;;10.10;100.00
32873;BME280;19224;52.462;16.898;2024-03-29T02:27:56;98915.11;;;10.01;100.00
32873;BME280;19224;52.462;16.898;2024-03-29T02:30:27;98907.80;;;9.96;100.00
32873;BME280;19224;52.462;16.898;2024-03-29T02:33:00;98910.89;;;9.76;100.00
32873;BME280;19224;52.462;16.898;2024-03-29T02:35:31;98912.83;;;9.81;100.00
32873;BME280;19224;52.462;16.898;2024-03-29T02:38:01;98914.84;;;9.77;100.00
32873;BME280;19224;52.462;16.898;2024-03-29T02:40:32;98912.81;;;9.74;100.00
32873;BME280;19224;52.462;16.898;2024-03-29T02:43:02;98909.55;;;9.76;100.00
32873;BME280;19224;52.462;16.898;2024-03-29T02:45:33;98916.30;;;9.69;100.00
32873;BME280;19224;52.462;16.898;2024-03-29T02:48:06;98916.30;;;9.69;100.00
32873;BME280;19224;52.462;16.898;2024-03-29T02:50:36;98912.14;;;9.49;100.00
32873;BME280;19224;52.462;16.898;2024-03-29T02:53:06;98916.95;;;9.44;100.00
32873;BME280;19224;52.462;16.898;2024-03-29T02:55:36;98929.51;;;9.30;100.00
32873;BME280;19224;52.462;16.898;2024-03-29T02:58:06;98923.07;;;9.26;100.00
32873;BME280;19224;52.462;16.898;2024-03-29T03:00:37;98914.14;;;9.18;100.00
32873;BME280;19224;52.462;16.898;2024-03-29T03:03:07;98927.90;;;9.28;100.00
32873;BME280;19224;52.462;16.898;2024-03-29T03:05:37;98920.09;;;9.16;100.00
32873;BME280;19224;52.462;16.898;2024-03-29T03:08:08;98917.59;;;9.20;100.00
32873;BME280;19224;52.462;16.898;2024-03-29T03:10:56;98915.79;;;9.21;100.00
32873;BME280;19224;52.462;16.898;2024-03-29T03:13:29;98924.70;;;9.14;100.00
32873;BME280;19224;52.462;16.898;2024-03-29T03:16:00;98919.11;;;9.10;100.00
32873;BME280;19224;52.462;16.898;2024-03-29T03:18:30;98918.27;;;9.10;100.00
32873;BME280;19224;52.462;16.898;2024-03-29T03:21:01;98915.64;;;8.94;100.00
32873;BME280;19224;52.462;16.898;2024-03-29T03:23:32;98917.06;;;8.86;100.00
32873;BME280;19224;52.462;16.898;2024-03-29T03:26:04;98924.84;;;8.90;100.00
32873;BME280;19224;52.462;16.898;2024-03-29T03:28:34;98927.75;;;9.01;100.00
32873;BME280;19224;52.462;16.898;2024-03-29T03:31:05;98931.97;;;9.05;100.00
32873;BME280;19224;52.462;16.898;2024-03-29T03:33:36;98930.81;;;9.09;100.00
32873;BME280;19224;52.462;16.898;2024-03-29T03:36:07;98931.03;;;9.13;100.00
32873;BME280;19224;52.462;16.898;2024-03-29T03:38:37;98930.95;;;9.22;100.00
32873;BME280;19224;52.462;16.898;2024-03-29T03:41:08;98936.04;;;9.26;100.00
32873;BME280;19224;52.462;16.898;2024-03-29T03:43:39;98927.59;;;9.25;100.00
32873;BME280;19224;52.462;16.898;2024-03-29T03:46:09;98930.73;;;9.11;100.00
32873;BME280;19224;52.462;16.898;2024-03-29T03:48:39;98930.27;;;9.11;100.00
32873;BME280;19224;52.462;16.898;2024-03-29T03:51:09;98932.76;;;9.14;100.00
32873;BME280;19224;52.462;16.898;2024-03-29T03:53:39;98930.73;;;9.11;100.00
32873;BME280;19224;52.462;16.898;2024-03-29T03:56:11;98932.53;;;9.10;100.00
32873;BME280;19224;52.462;16.898;2024-03-29T03:58:43;98936.11;;;9.11;100.00
32873;BME280;19224;52.462;16.898;2024-03-29T04:01:13;98935.61;;;9.04;100.00
32873;BME280;19224;52.462;16.898;2024-03-29T04:03:44;98937.72;;;9.06;100.00
32873;BME280;19224;52.462;16.898;2024-03-29T04:06:14;98942.79;;;9.04;100.00
32873;BME280;19224;52.462;16.898;2024-03-29T04:08:45;98954.60;;;9.01;100.00
32873;BME280;19224;52.462;16.898;2024-03-29T04:11:16;98940.65;;;8.88;100.00
32873;BME280;19224;52.462;16.898;2024-03-29T04:13:46;98946.98;;;8.87;100.00
32873;BME280;19224;52.462;16.898;2024-03-29T04:16:17;98951.20;;;8.84;100.00
32873;BME280;19224;52.462;16.898;2024-03-29T04:18:47;98961.81;;;8.85;100.00
32873;BME280;19224;52.462;16.898;2024-03-29T04:21:17;98953.58;;;8.88;100.00
32873;BME280;19224;52.462;16.898;2024-03-29T04:23:47;98955.72;;;8.90;100.00
32873;BME280;19224;52.462;16.898;2024-03-29T04:26:18;98959.52;;;8.86;100.00
32873;BME280;19224;52.462;16.898;2024-03-29T04:28:49;98970.10;;;8.89;100.00
32873;BME280;19224;52.462;16.898;2024-03-29T04:31:19;98976.77;;;8.82;100.00
32873;BME280;19224;52.462;16.898;2024-03-29T04:33:49;98979.77;;;8.85;100.00
32873;BME280;19224;52.462;16.898;2024-03-29T04:36:19;98977.73;;;8.88;100.00
32873;BME280;19224;52.462;16.898;2024-03-29T04:38:50;98974.28;;;8.86;100.00
32873;BME280;19224;52.462;16.898;2024-03-29T04:41:20;98968.95;;;8.93;100.00
32873;BME280;19224;52.462;16.898;2024-03-29T04:43:51;98964.66;;;8.98;100.00
32873;BME280;19224;52.462;16.898;2024-03-29T04:46:22;98964.81;;;8.88;100.00
32873;BME280;19224;52.462;16.898;2024-03-29T04:48:52;98963.55;;;8.86;100.00
32873;BME280;19224;52.462;16.898;2024-03-29T04:51:22;98964.73;;;8.89;100.00
32873;BME280;19224;52.462;16.898;2024-03-29T04:53:53;98966.84;;;8.98;100.00
32873;BME280;19224;52.462;16.898;2024-03-29T04:56:23;98963.61;;;9.00;100.00
32873;BME280;19224;52.462;16.898;2024-03-29T04:58:54;98965.88;;;8.92;100.00
32873;BME280;19224;52.462;16.898;2024-03-29T05:01:24;98970.56;;;8.89;100.00
32873;BME280;19224;52.462;16.898;2024-03-29T05:03:54;98976.24;;;8.98;100.00
32873;BME280;19224;52.462;16.898;2024-03-29T05:06:24;98981.80;;;8.95;100.00
32873;BME280;19224;52.462;16.898;2024-03-29T05:08:55;98986.02;;;8.99;100.00
32873;BME280;19224;52.462;16.898;2024-03-29T05:11:25;98983.26;;;9.01;100.00
32873;BME280;19224;52.462;16.898;2024-03-29T05:13:55;98980.69;;;9.06;100.00
32873;BME280;19224;52.462;16.898;2024-03-29T05:16:28;98991.54;;;9.12;100.00
32873;BME280;19224;52.462;16.898;2024-03-29T05:18:58;98994.30;;;9.10;100.00
32873;BME280;19224;52.462;16.898;2024-03-29T05:21:28;99000.55;;;9.11;100.00
32873;BME280;19224;52.462;16.898;2024-03-29T05:23:59;99014.48;;;9.17;100.00
32873;BME280;19224;52.462;16.898;2024-03-29T05:26:29;99010.26;;;9.20;100.00
32873;BME280;19224;52.462;16.898;2024-03-29T05:29:01;99012.52;;;9.28;100.00
32873;BME280;19224;52.462;16.898;2024-03-29T05:31:33;99007.53;;;9.29;100.00
32873;BME280;19224;52.462;16.898;2024-03-29T05:34:03;98994.86;;;9.31;100.00
32873;BME280;19224;52.462;16.898;2024-03-29T05:36:33;99005.91;;;9.40;100.00
32873;BME280;19224;52.462;16.898;2024-03-29T05:39:05;99008.04;;;9.49;100.00
32873;BME280;19224;52.462;16.898;2024-03-29T05:41:35;99016.78;;;9.52;100.00
32873;BME280;19224;52.462;16.898;2024-03-29T05:44:05;99013.98;;;9.54;99.93
32873;BME280;19224;52.462;16.898;2024-03-29T05:46:36;99009.02;;;9.62;99.65
32873;BME280;19224;52.462;16.898;2024-03-29T05:49:08;99007.95;;;9.71;99.21
32873;BME280;19224;52.462;16.898;2024-03-29T05:51:38;98996.66;;;9.73;99.22
32873;BME280;19224;52.462;16.898;2024-03-29T05:54:08;98995.41;;;9.79;99.01
32873;BME280;19224;52.462;16.898;2024-03-29T05:56:39;99000.78;;;9.93;98.51
32873;BME280;19224;52.462;16.898;2024-03-29T05:59:09;98999.74;;;10.02;98.15
32873;BME280;19224;52.462;16.898;2024-03-29T06:01:41;98995.42;;;10.14;97.53
32873;BME280;19224;52.462;16.898;2024-03-29T06:04:11;98984.55;;;10.22;96.91
32873;BME280;19224;52.462;16.898;2024-03-29T06:06:47;98988.94;;;10.37;96.14
32873;BME280;19224;52.462;16.898;2024-03-29T06:09:17;98991.33;;;10.49;95.41
32873;BME280;19224;52.462;16.898;2024-03-29T06:11:47;98978.11;;;10.65;94.96
32873;BME280;19224;52.462;16.898;2024-03-29T06:14:17;98984.91;;;10.78;94.29
32873;BME280;19224;52.462;16.898;2024-03-29T06:17:06;98987.97;;;10.79;93.42
32873;BME280;19224;52.462;16.898;2024-03-29T06:19:55;98990.55;;;10.80;92.64
32873;BME280;19224;52.462;16.898;2024-03-29T06:22:27;98995.03;;;10.87;92.42
32873;BME280;19224;52.462;16.898;2024-03-29T06:25:00;98997.55;;;10.90;92.09
32873;BME280;19224;52.462;16.898;2024-03-29T06:27:38;99012.69;;;10.98;92.18
32873;BME280;19224;52.462;16.898;2024-03-29T06:30:09;99016.88;;;11.09;91.18
32873;BME280;19224;52.462;16.898;2024-03-29T06:32:40;99028.08;;;11.22;90.70
32873;BME280;19224;52.462;16.898;2024-03-29T06:35:10;99038.79;;;11.17;90.71
32873;BME280;19224;52.462;16.898;2024-03-29T06:37:41;99035.88;;;11.20;90.24
32873;BME280;19224;52.462;16.898;2024-03-29T06:40:12;99041.25;;;11.27;90.12
32873;BME280;19224;52.462;16.898;2024-03-29T06:42:42;99031.75;;;11.21;88.37
32873;BME280;19224;52.462;16.898;2024-03-29T06:45:15;99029.70;;;11.44;88.91
32873;BME280;19224;52.462;16.898;2024-03-29T06:47:45;99036.28;;;11.53;87.36
32873;BME280;19224;52.462;16.898;2024-03-29T06:50:16;99029.77;;;11.57;87.60
32873;BME280;19224;52.462;16.898;2024-03-29T06:52:46;99029.77;;;11.57;86.06
32873;BME280;19224;52.462;16.898;2024-03-29T06:55:17;99029.61;;;11.65;87.12
32873;BME280;19224;52.462;16.898;2024-03-29T06:57:48;99026.72;;;11.81;87.47
32873;BME280;19224;52.462;16.898;2024-03-29T07:00:19;99019.03;;;11.99;85.84
32873;BME280;19224;52.462;16.898;2024-03-29T07:02:53;99019.18;;;12.16;84.61
32873;BME280;19224;52.462;16.898;2024-03-29T07:05:24;99019.69;;;12.15;83.59
32873;BME280;19224;52.462;16.898;2024-03-29T07:07:59;99033.80;;;12.31;83.30
32873;BME280;19224;52.462;16.898;2024-03-29T07:10:30;99041.80;;;12.20;82.53
32873;BME280;19224;52.462;16.898;2024-03-29T07:13:00;99056.83;;;12.24;81.02
32873;BME280;19224;52.462;16.898;2024-03-29T07:15:31;99057.21;;;12.43;80.57
32873;BME280;19224;52.462;16.898;2024-03-29T07:18:02;99050.88;;;12.19;80.12
32873;BME280;19224;52.462;16.898;2024-03-29T07:20:32;99050.31;;;12.39;79.65
32873;BME280;19224;52.462;16.898;2024-03-29T07:23:03;99043.75;;;12.49;79.68
32873;BME280;19224;52.462;16.898;2024-03-29T07:25:34;99051.11;;;12.47;79.02
32873;BME280;19224;52.462;16.898;2024-03-29T07:28:05;99060.23;;;12.33;78.44
32873;BME280;19224;52.462;16.898;2024-03-29T07:30:38;99073.27;;;12.39;78.20
32873;BME280;19224;52.462;16.898;2024-03-29T07:33:08;99063.25;;;12.59;78.01
32873;BME280;19224;52.462;16.898;2024-03-29T07:35:38;99078.89;;;12.67;77.24
32873;BME280;19224;52.462;16.898;2024-03-29T07:38:10;99072.73;;;12.83;76.38
32873;BME280;19224;52.462;16.898;2024-03-29T07:40:41;99065.39;;;12.67;76.38
32873;BME280;19224;52.462;16.898;2024-03-29T07:43:11;99067.09;;;12.80;75.25
32873;BME280;19224;52.462;16.898;2024-03-29T07:45:44;99068.58;;;12.84;75.37
32873;BME280;19224;52.462;16.898;2024-03-29T07:48:17;99073.55;;;12.90;74.81
32873;BME280;19224;52.462;16.898;2024-03-29T07:50:49;99063.59;;;13.03;74.98
32873;BME280;19224;52.462;16.898;2024-03-29T07:53:20;99060.21;;;13.12;74.67
32873;BME280;19224;52.462;16.898;2024-03-29T07:55:52;99060.61;;;13.19;73.25
32873;BME280;19224;52.462;16.898;2024-03-29T07:58:24;99064.42;;;13.22;73.38
32873;BME280;19224;52.462;16.898;2024-03-29T08:00:54;99065.17;;;13.24;72.86
32873;BME280;19224;52.462;16.898;2024-03-29T08:03:24;99072.38;;;13.41;72.82
32873;BME280;19224;52.462;16.898;2024-03-29T08:06:04;99078.70;;;13.47;72.56
32873;BME280;19224;52.462;16.898;2024-03-29T08:08:35;99083.05;;;13.55;72.10
32873;BME280;19224;52.462;16.898;2024-03-29T08:11:06;99086.53;;;13.68;71.21
32873;BME280;19224;52.462;16.898;2024-03-29T08:13:38;99087.17;;;13.83;70.90
32873;BME280;19224;52.462;16.898;2024-03-29T08:16:09;99090.70;;;14.01;70.69
32873;BME280;19224;52.462;16.898;2024-03-29T08:18:40;99087.51;;;14.13;69.34
32873;BME280;19224;52.462;16.898;2024-03-29T08:21:10;99084.02;;;14.23;68.76
32873;BME280;19224;52.462;16.898;2024-03-29T08:23:42;99075.00;;;14.17;67.93
32873;BME280;19224;52.462;16.898;2024-03-29T08:26:16;99082.50;;;14.19;67.79
32873;BME280;19224;52.462;16.898;2024-03-29T08:28:47;99089.30;;;14.36;67.53
32873;BME280;19224;52.462;16.898;2024-03-29T08:31:17;99097.33;;;14.48;66.22
32873;BME280;19224;52.462;16.898;2024-03-29T08:33:48;99100.28;;;14.34;65.67
32873;BME280;19224;52.462;16.898;2024-03-29T08:36:18;99100.86;;;14.27;65.33
32873;BME280;19224;52.462;16.898;2024-03-29T08:38:49;99106.91;;;14.41;64.30
32873;BME280;19224;52.462;16.898;2024-03-29T08:41:19;99119.27;;;14.56;65.42
32873;BME280;19224;52.462;16.898;2024-03-29T08:43:53;99125.80;;;14.86;64.76
32873;BME280;19224;52.462;16.898;2024-03-29T08:46:23;99128.13;;;15.02;64.38
32873;BME280;19224;52.462;16.898;2024-03-29T08:48:53;99133.55;;;15.07;64.05
32873;BME280;19224;52.462;16.898;2024-03-29T08:51:27;99121.81;;;15.18;63.14
32873;BME280;19224;52.462;16.898;2024-03-29T08:53:58;99125.15;;;15.16;61.87
32873;BME280;19224;52.462;16.898;2024-03-29T08:56:31;99122.53;;;15.25;60.86
32873;BME280;19224;52.462;16.898;2024-03-29T08:59:04;99112.30;;;15.29;60.28
32873;BME280;19224;52.462;16.898;2024-03-29T09:01:45;99101.70;;;15.26;60.05
32873;BME280;19224;52.462;16.898;2024-03-29T09:04:17;99099.83;;;15.43;60.23
32873;BME280;19224;52.462;16.898;2024-03-29T09:06:48;99118.72;;;15.39;58.93
32873;BME280;19224;52.462;16.898;2024-03-29T09:09:19;99125.59;;;15.48;58.17
32873;BME280;19224;52.462;16.898;2024-03-29T09:11:49;99129.47;;;15.35;57.59
32873;BME280;19224;52.462;16.898;2024-03-29T09:14:20;99129.08;;;15.45;56.96
32873;BME280;19224;52.462;16.898;2024-03-29T09:16:51;99130.41;;;15.56;57.65
32873;BME280;19224;52.462;16.898;2024-03-29T09:19:21;99135.55;;;15.64;57.45
32873;BME280;19224;52.462;16.898;2024-03-29T09:21:53;99133.75;;;15.85;56.88
32873;BME280;19224;52.462;16.898;2024-03-29T09:24:23;99140.11;;;16.01;57.06
32873;BME280;19224;52.462;16.898;2024-03-29T09:26:55;99139.69;;;16.11;56.00
32873;BME280;19224;52.462;16.898;2024-03-29T09:29:26;99134.62;;;16.12;56.39
32873;BME280;19224;52.462;16.898;2024-03-29T09:31:56;99137.81;;;16.11;56.99
32873;BME280;19224;52.462;16.898;2024-03-29T09:34:33;99139.11;;;16.02;54.55
32873;BME280;19224;52.462;16.898;2024-03-29T09:37:00;99136.09;;;16.10;54.00
32873;BME280;19224;52.462;16.898;2024-03-29T09:39:31;99136.97;;;16.11;50.87
32873;BME280;19224;52.462;16.898;2024-03-29T09:42:04;99143.58;;;16.18;53.40
32873;BME280;19224;52.462;16.898;2024-03-29T09:44:35;99148.80;;;16.10;53.52
32873;BME280;19224;52.462;16.898;2024-03-29T09:47:07;99136.82;;;16.12;51.78
32873;BME280;19224;52.462;16.898;2024-03-29T09:49:38;99140.02;;;16.17;53.28
32873;BME280;19224;52.462;16.898;2024-03-29T09:52:09;99145.33;;;16.13;52.27
32873;BME280;19224;52.462;16.898;2024-03-29T09:54:40;99134.38;;;16.09;52.10
32873;BME280;19224;52.462;16.898;2024-03-29T09:57:11;99142.62;;;16.13;51.63
32873;BME280;19224;52.462;16.898;2024-03-29T09:59:46;99130.28;;;15.89;49.94
32873;BME280;19224;52.462;16.898;2024-03-29T10:02:21;99104.06;;;15.93;51.30
32873;BME280;19224;52.462;16.898;2024-03-29T10:04:56;99090.34;;;16.00;51.45
32873;BME280;19224;52.462;16.898;2024-03-29T10:07:27;99113.40;;;16.06;52.42
32873;BME280;19224;52.462;16.898;2024-03-29T10:10:00;99102.85;;;16.33;50.75
32873;BME280;19224;52.462;16.898;2024-03-29T10:12:31;99109.28;;;16.32;50.30
32873;BME280;19224;52.462;16.898;2024-03-29T10:15:04;99131.27;;;16.40;49.58
32873;BME280;19224;52.462;16.898;2024-03-29T10:17:49;99117.31;;;16.39;48.50
32873;BME280;19224;52.462;16.898;2024-03-29T10:20:20;99115.95;;;16.39;46.81
32873;BME280;19224;52.462;16.898;2024-03-29T10:22:52;99120.95;;;16.49;46.70
32873;BME280;19224;52.462;16.898;2024-03-29T10:25:24;99121.50;;;16.88;48.33
32873;BME280;19224;52.462;16.898;2024-03-29T10:27:54;99122.88;;;16.73;45.92
32873;BME280;19224;52.462;16.898;2024-03-29T10:30:26;99115.98;;;16.84;45.55
32873;BME280;19224;52.462;16.898;2024-03-29T10:33:00;99107.96;;;16.97;45.53
32873;BME280;19224;52.462;16.898;2024-03-29T10:35:31;99109.53;;;17.14;45.64
32873;BME280;19224;52.462;16.898;2024-03-29T10:38:03;99105.28;;;17.31;45.03
32873;BME280;19224;52.462;16.898;2024-03-29T10:40:35;99109.19;;;17.23;44.74
32873;BME280;19224;52.462;16.898;2024-03-29T10:43:10;99114.09;;;17.29;44.97
32873;BME280;19224;52.462;16.898;2024-03-29T10:45:49;99115.56;;;17.18;44.67
32873;BME280;19224;52.462;16.898;2024-03-29T10:48:23;99108.84;;;17.31;44.36
32873;BME280;19224;52.462;16.898;2024-03-29T10:51:04;99100.97;;;17.28;44.63
32873;BME280;19224;52.462;16.898;2024-03-29T10:53:33;99103.67;;;17.43;45.38
32873;BME280;19224;52.462;16.898;2024-03-29T10:56:07;99105.53;;;17.67;45.42
32873;BME280;19224;52.462;16.898;2024-03-29T10:58:45;99105.30;;;17.65;44.71
32873;BME280;19224;52.462;16.898;2024-03-29T11:01:12;99102.19;;;17.54;44.47
32873;BME280;19224;52.462;16.898;2024-03-29T11:03:58;99098.75;;;17.52;44.30
32873;BME280;19224;52.462;16.898;2024-03-29T11:06:30;99100.76;;;17.50;44.29
32873;BME280;19224;52.462;16.898;2024-03-29T11:09:11;99103.31;;;17.42;42.79
32873;BME280;19224;52.462;16.898;2024-03-29T11:11:48;99103.64;;;17.58;43.06
32873;BME280;19224;52.462;16.898;2024-03-29T11:14:35;99106.59;;;17.61;42.26
32873;BME280;19224;52.462;16.898;2024-03-29T11:17:09;99113.89;;;17.60;42.95
32873;BME280;19224;52.462;16.898;2024-03-29T11:19:42;99112.59;;;17.55;41.82
32873;BME280;19224;52.462;16.898;2024-03-29T11:22:13;99100.97;;;17.28;40.83
32873;BME280;19224;52.462;16.898;2024-03-29T11:24:51;99110.77;;;17.40;42.81
32873;BME280;19224;52.462;16.898;2024-03-29T11:27:24;99102.28;;;17.68;42.84
32873;BME280;19224;52.462;16.898;2024-03-29T11:29:55;99093.75;;;17.76;43.17
32873;BME280;19224;52.462;16.898;2024-03-29T11:32:39;99096.35;;;17.68;42.29
32873;BME280;19224;52.462;16.898;2024-03-29T11:35:14;99089.47;;;17.83;42.31
32873;BME280;19224;52.462;16.898;2024-03-29T11:37:59;99081.74;;;17.88;42.77
32873;BME280;19224;52.462;16.898;2024-03-29T11:40:32;99084.38;;;17.84;42.44
32873;BME280;19224;52.462;16.898;2024-03-29T11:43:02;99091.77;;;17.78;41.63
32873;BME280;19224;52.462;16.898;2024-03-29T11:45:34;99096.16;;;18.27;42.85
32873;BME280;19224;52.462;16.898;2024-03-29T11:48:06;99085.27;;;18.46;41.75
32873;BME280;19224;52.462;16.898;2024-03-29T11:50:41;99083.55;;;18.68;41.04
32873;BME280;19224;52.462;16.898;2024-03-29T11:53:24;99081.28;;;19.13;40.51
32873;BME280;19224;52.462;16.898;2024-03-29T11:56:01;99089.97;;;18.76;38.77
32873;BME280;19224;52.462;16.898;2024-03-29T11:58:34;99073.48;;;18.55;38.90
32873;BME280;19224;52.462;16.898;2024-03-29T12:01:09;99080.86;;;18.81;38.88
32873;BME280;19224;52.462;16.898;2024-03-29T12:03:44;99075.72;;;19.05;39.66
32873;BME280;19224;52.462;16.898;2024-03-29T12:06:17;99083.67;;;19.26;39.99
32873;BME280;19224;52.462;16.898;2024-03-29T12:08:49;99085.95;;;19.30;38.79
32873;BME280;19224;52.462;16.898;2024-03-29T12:11:21;99078.32;;;19.34;38.87
32873;BME280;19224;52.462;16.898;2024-03-29T12:13:52;99083.64;;;19.35;39.43
32873;BME280;19224;52.462;16.898;2024-03-29T12:16:22;99084.13;;;19.21;38.49
32873;BME280;19224;52.462;16.898;2024-03-29T12:18:54;99081.71;;;19.18;37.87
32873;BME280;19224;52.462;16.898;2024-03-29T12:21:25;99079.44;;;19.27;38.52
32873;BME280;19224;52.462;16.898;2024-03-29T12:23:56;99066.94;;;19.69;38.44
32873;BME280;19224;52.462;16.898;2024-03-29T12:26:26;99062.14;;;19.67;37.63
32873;BME280;19224;52.462;16.898;2024-03-29T12:28:58;99061.48;;;19.38;37.39
32873;BME280;19224;52.462;16.898;2024-03-29T12:31:30;99057.28;;;19.17;37.69
32873;BME280;19224;52.462;16.898;2024-03-29T12:34:00;99067.64;;;19.13;38.15
32873;BME280;19224;52.462;16.898;2024-03-29T12:36:33;99067.25;;;19.35;37.35
32873;BME280;19224;52.462;16.898;2024-03-29T12:39:04;99065.84;;;19.48;36.59
32873;BME280;19224;52.462;16.898;2024-03-29T12:41:34;99066.20;;;19.09;35.87
32873;BME280;19224;52.462;16.898;2024-03-29T12:44:05;99062.17;;;19.13;36.26
32873;BME280;19224;52.462;16.898;2024-03-29T12:46:38;99059.30;;;19.01;35.38
32873;BME280;19224;52.462;16.898;2024-03-29T12:49:12;99056.92;;;19.02;39.48
32873;BME280;19224;52.462;16.898;2024-03-29T12:51:45;99064.20;;;19.52;41.44
32873;BME280;19224;52.462;16.898;2024-03-29T12:54:15;99060.59;;;19.51;36.17
32873;BME280;19224;52.462;16.898;2024-03-29T12:56:47;99060.46;;;19.70;35.69
32873;BME280;19224;52.462;16.898;2024-03-29T12:59:17;99056.73;;;19.92;35.87
32873;BME280;19224;52.462;16.898;2024-03-29T13:01:47;99054.63;;;20.21;35.26
32873;BME280;19224;52.462;16.898;2024-03-29T13:04:17;99059.52;;;20.57;34.98
32873;BME280;19224;52.462;16.898;2024-03-29T13:06:48;99057.81;;;20.60;33.72
32873;BME280;19224;52.462;16.898;2024-03-29T13:09:23;99043.17;;;20.73;33.29
32873;BME280;19224;52.462;16.898;2024-03-29T13:11:57;99044.75;;;21.05;33.50
32873;BME280;19224;52.462;16.898;2024-03-29T13:14:27;99036.28;;;20.65;32.89